Time;durP1;ratioP1;P1;durP2;ratioP2;P2;SDS_P1;SDS_P2;PMS_P1;PMS_P2;Temp;Humidity;BMP_temperature;BMP_pressure;BME280_temperature;BME280_humidity;BME280_pressure;Samples;Min_cycle;Max_cycle;Signal;HPM_P1;HPM_P2
2021/05/20 00:00:24;;;;;;;0.32;0.32;;;;;;;9.21;36.59;92668.81;4955646;29;20039;-76
2021/05/20 00:02:51;;;;;;;2.90;0.60;;;;;;;9.21;37.01;92673.25;4955926;29;20062;-76
2021/05/20 00:05:19;;;;;;;0.65;0.43;;;;;;;9.20;36.50;92669.09;4938789;29;20039;-76
2021/05/20 00:07:46;;;;;;;0.57;0.40;;;;;;;9.24;36.60;92673.50;4938210;29;20062;-76
2021/05/20 00:10:14;;;;;;;0.45;0.40;;;;;;;9.22;36.64;92667.75;4955376;29;20035;-77
2021/05/20 00:12:40;;;;;;;0.60;0.40;;;;;;;9.23;36.33;92674.56;4955788;29;20106;-76
2021/05/20 00:15:08;;;;;;;0.88;0.57;;;;;;;9.27;36.94;92672.16;4938703;29;20047;-75
2021/05/20 00:17:34;;;;;;;0.75;0.50;;;;;;;9.19;36.55;92676.16;4955200;29;20134;-76
2021/05/20 00:20:00;;;;;;;0.98;0.50;;;;;;;9.20;36.90;92675.09;4955667;29;20034;-76
2021/05/20 00:22:29;;;;;;;0.65;0.45;;;;;;;9.27;36.42;92667.72;4955979;29;20047;-77
2021/05/20 00:24:56;;;;;;;0.52;0.40;;;;;;;9.25;36.65;92667.22;4939657;29;20462;-77
2021/05/20 00:27:22;;;;;;;0.40;0.40;;;;;;;9.26;36.17;92663.56;4955879;28;20039;-77
2021/05/20 00:29:49;;;;;;;0.52;0.45;;;;;;;9.27;36.44;92662.50;4922412;29;20090;-75
2021/05/20 00:32:16;;;;;;;0.30;0.30;;;;;;;9.27;36.01;92662.50;4955130;29;20134;-76
2021/05/20 00:34:42;;;;;;;0.88;0.50;;;;;;;9.36;36.28;92665.28;4937964;29;20063;-75
2021/05/20 00:37:08;;;;;;;0.40;0.38;;;;;;;9.29;36.57;92668.22;4937609;29;20114;-76
2021/05/20 00:39:34;;;;;;;1.27;0.50;;;;;;;9.23;36.92;92661.50;4937480;29;20073;-76
2021/05/20 00:42:06;;;;;;;0.45;0.40;;;;;;;9.21;36.80;92660.19;4955075;29;20054;-76
2021/05/20 00:44:33;;;;;;;0.30;0.30;;;;;;;9.16;36.80;92661.81;4937900;29;20040;-76
2021/05/20 00:46:58;;;;;;;0.30;0.30;;;;;;;9.26;36.16;92665.41;4957239;28;20058;-76
2021/05/20 00:49:24;;;;;;;0.65;0.45;;;;;;;9.26;36.59;92675.84;4940264;28;20049;-76
2021/05/20 00:51:50;;;;;;;0.47;0.45;;;;;;;9.22;36.69;92664.38;4973695;28;20047;-75
2021/05/20 00:54:20;;;;;;;1.05;0.50;;;;;;;9.26;36.57;92676.63;4956403;28;20050;-76
2021/05/20 00:56:47;;;;;;;0.88;0.60;;;;;;;9.24;36.91;92670.88;4955781;28;20038;-76
2021/05/20 00:59:12;;;;;;;0.35;0.35;;;;;;;9.23;36.80;92661.50;4955604;28;20050;-76
2021/05/20 01:01:39;;;;;;;0.40;0.40;;;;;;;9.23;36.96;92666.72;4973457;28;20466;-76
2021/05/20 01:04:05;;;;;;;1.70;0.50;;;;;;;9.23;36.81;92665.91;4956382;28;20047;-76
2021/05/20 01:06:30;;;;;;;0.45;0.40;;;;;;;9.21;37.11;92658.38;4955482;28;20047;-76
2021/05/20 01:08:57;;;;;;;0.35;0.35;;;;;;;9.21;36.79;92668.81;4955852;28;20042;-76
2021/05/20 01:11:23;;;;;;;1.45;0.57;;;;;;;9.22;37.29;92664.38;4972914;28;20042;-76
2021/05/20 01:13:49;;;;;;;0.50;0.50;;;;;;;9.19;37.28;92665.69;4955746;28;20050;-76
2021/05/20 01:16:14;;;;;;;0.70;0.40;;;;;;;9.18;36.30;92658.91;4955648;28;20425;-76
2021/05/20 01:18:40;;;;;;;0.30;0.30;;;;;;;9.18;36.82;92659.69;4972723;28;20167;-76
2021/05/20 01:21:06;;;;;;;0.52;0.32;;;;;;;9.14;37.24;92663.91;4955662;28;20042;-76
2021/05/20 01:23:32;;;;;;;0.30;0.30;;;;;;;9.13;37.30;92654.50;4973270;28;20106;-76
2021/05/20 01:26:02;;;;;;;0.52;0.40;;;;;;;9.15;36.61;92655.00;4939523;28;20139;-76
2021/05/20 01:28:30;;;;;;;0.63;0.43;;;;;;;9.10;37.17;92652.44;4973174;28;20043;-76
2021/05/20 01:30:57;;;;;;;0.50;0.40;;;;;;;9.08;36.96;92659.00;4973590;28;20046;-76
2021/05/20 01:33:24;;;;;;;0.38;0.38;;;;;;;9.05;36.59;92655.09;4973101;28;20072;-76
2021/05/20 01:35:50;;;;;;;0.52;0.50;;;;;;;9.09;36.54;92650.09;4955357;28;20071;-76
2021/05/20 01:40:50;;;;;;;0.40;0.40;;;;;;;9.09;37.00;92660.53;4972651;28;20046;-75
2021/05/20 01:43:17;;;;;;;0.30;0.30;;;;;;;9.09;36.98;92656.09;4939175;28;20070;-76
2021/05/20 01:45:48;;;;;;;2.03;0.40;;;;;;;9.14;36.42;92653.47;4952655;28;20110;-76
2021/05/20 01:48:14;;;;;;;0.57;0.40;;;;;;;9.09;37.52;92655.31;4972904;28;20122;-76
2021/05/20 01:50:40;;;;;;;0.40;0.40;;;;;;;9.05;37.22;92651.69;4972935;28;20046;-76
2021/05/20 01:53:06;;;;;;;1.85;0.40;;;;;;;9.01;37.13;92653.31;4971863;28;20042;-76
2021/05/20 01:55:32;;;;;;;0.30;0.30;;;;;;;8.98;36.73;92657.22;4987352;28;20537;-76
2021/05/20 01:57:58;;;;;;;0.40;0.40;;;;;;;8.96;36.13;92654.91;4987225;28;20054;-76
2021/05/20 02:00:23;;;;;;;0.43;0.43;;;;;;;9.01;36.38;92663.75;4972246;28;20046;-76
2021/05/20 02:02:49;;;;;;;0.35;0.35;;;;;;;8.99;36.73;92660.63;4972452;28;20413;-75
2021/05/20 02:05:16;;;;;;;0.30;0.30;;;;;;;8.93;36.19;92655.41;4972060;28;20508;-76
2021/05/20 02:07:42;;;;;;;0.40;0.40;;;;;;;8.91;36.50;92660.13;4954853;28;20514;-75
2021/05/20 02:10:08;;;;;;;0.40;0.40;;;;;;;8.88;36.40;92665.91;4972346;28;20419;-76
2021/05/20 02:12:34;;;;;;;0.32;0.32;;;;;;;8.90;36.05;92660.41;4972581;28;20047;-75
2021/05/20 02:14:59;;;;;;;0.32;0.32;;;;;;;8.87;36.41;92660.94;4996255;28;20041;-75
2021/05/20 02:17:25;;;;;;;0.40;0.40;;;;;;;8.84;36.37;92664.88;4991216;28;20069;-75
2021/05/20 02:19:51;;;;;;;0.40;0.40;;;;;;;8.81;36.45;92662.81;4991442;28;20042;-76
2021/05/20 02:22:16;;;;;;;0.70;0.50;;;;;;;8.81;36.34;92662.81;4991808;28;20038;-76
2021/05/20 02:24:42;;;;;;;0.30;0.30;;;;;;;8.81;36.58;92670.66;4991424;28;20484;-76
2021/05/20 02:27:08;;;;;;;0.32;0.32;;;;;;;8.78;36.49;92667.78;4991392;28;20057;-76
2021/05/20 02:29:33;;;;;;;0.45;0.45;;;;;;;8.72;36.69;92670.44;4991662;28;20225;-76
2021/05/20 02:31:59;;;;;;;0.95;0.40;;;;;;;8.68;37.29;92672.00;4991925;28;20038;-76
2021/05/20 02:34:25;;;;;;;0.57;0.40;;;;;;;8.60;39.11;92674.41;4958049;28;20489;-76
2021/05/20 02:36:51;;;;;;;0.40;0.40;;;;;;;8.47;39.88;92668.72;4973944;28;20058;-76
2021/05/20 02:39:17;;;;;;;0.30;0.30;;;;;;;8.35;39.79;92681.25;4973827;28;20046;-76
2021/05/20 02:41:44;;;;;;;0.30;0.30;;;;;;;8.24;40.38;92677.13;4973928;28;20483;-76
2021/05/20 02:44:10;;;;;;;3.05;0.75;;;;;;;8.11;40.84;92679.28;4974140;28;20045;-76
2021/05/20 02:46:37;;;;;;;5.60;0.40;;;;;;;8.01;41.20;92683.72;4978433;28;20465;-76
2021/05/20 02:49:03;;;;;;;0.40;0.40;;;;;;;7.90;41.34;92680.34;4971807;28;20043;-75
2021/05/20 02:51:29;;;;;;;0.60;0.43;;;;;;;7.82;41.40;92686.91;4973412;28;20501;-76
2021/05/20 02:53:55;;;;;;;0.40;0.40;;;;;;;7.72;41.83;92682.50;4975350;28;20039;-76
2021/05/20 02:56:21;;;;;;;0.25;0.25;;;;;;;7.65;41.69;92686.41;4975196;28;20462;-76
2021/05/20 02:58:46;;;;;;;0.40;0.40;;;;;;;7.58;42.01;92686.66;4957941;28;20046;-75
2021/05/20 03:01:12;;;;;;;0.52;0.45;;;;;;;7.52;42.54;92695.53;4974962;28;20053;-75
2021/05/20 03:03:38;;;;;;;0.40;0.40;;;;;;;7.44;42.81;92690.84;4975434;28;20050;-76
2021/05/20 03:06:04;;;;;;;0.30;0.30;;;;;;;7.39;43.09;92693.47;4975408;28;20102;-75
2021/05/20 03:08:29;;;;;;;0.30;0.30;;;;;;;7.34;42.76;92701.25;4975637;28;20038;-75
2021/05/20 03:10:56;;;;;;;0.30;0.30;;;;;;;7.33;44.42;92694.50;4990383;28;20050;-75
2021/05/20 03:13:22;;;;;;;1.10;0.40;;;;;;;7.32;44.70;92698.13;4958238;28;20034;-75
2021/05/20 03:15:47;;;;;;;0.35;0.35;;;;;;;7.23;45.12;92695.28;4978897;28;20493;-75
2021/05/20 03:18:13;;;;;;;2.83;0.57;;;;;;;7.26;41.30;92695.53;4974932;28;20093;-77
2021/05/20 03:20:39;;;;;;;0.50;0.45;;;;;;;7.28;44.43;92697.88;4957559;28;20061;-76
2021/05/20 03:23:04;;;;;;;0.30;0.30;;;;;;;7.24;42.02;92694.22;4975428;28;20390;-75
2021/05/20 03:25:30;;;;;;;0.40;0.40;;;;;;;7.22;43.09;92694.47;4974776;28;20246;-75
2021/05/20 03:27:57;;;;;;;0.35;0.32;;;;;;;7.16;44.65;92694.72;4974922;28;20058;-76
2021/05/20 03:30:23;;;;;;;1.45;0.55;;;;;;;7.11;43.42;92690.31;4957547;28;20051;-75
2021/05/20 03:32:49;;;;;;;0.30;0.30;;;;;;;7.04;44.60;92706.19;4975061;28;20042;-75
2021/05/20 03:35:14;;;;;;;0.35;0.35;;;;;;;6.99;44.24;92703.56;4974770;28;20046;-75
2021/05/20 03:37:40;;;;;;;0.30;0.30;;;;;;;7.02;44.03;92710.09;4957145;28;20046;-76
2021/05/20 03:40:07;;;;;;;0.40;0.40;;;;;;;7.04;45.25;92715.81;4989643;28;20057;-75
2021/05/20 03:42:33;;;;;;;0.30;0.30;;;;;;;6.94;45.41;92715.81;4941486;28;20074;-75
2021/05/20 03:44:58;;;;;;;0.40;0.40;;;;;;;6.83;45.54;92712.41;4974707;28;20047;-76
2021/05/20 03:47:24;;;;;;;0.40;0.40;;;;;;;6.78;45.21;92715.00;4954756;28;20085;-76
2021/05/20 03:49:50;;;;;;;0.70;0.47;;;;;;;6.78;46.19;92715.78;4989220;28;20050;-75
2021/05/20 03:52:15;;;;;;;0.35;0.35;;;;;;;6.75;46.59;92721.47;4989471;28;20046;-76
2021/05/20 03:54:42;;;;;;;0.45;0.45;;;;;;;6.68;45.83;92729.50;4988944;28;20425;-76
2021/05/20 03:57:09;;;;;;;0.93;0.52;;;;;;;6.63;46.84;92721.69;4973312;28;20101;-75
2021/05/20 03:59:35;;;;;;;0.47;0.47;;;;;;;6.59;46.22;92727.66;4974322;28;20034;-76
2021/05/20 04:02:02;;;;;;;2.55;0.50;;;;;;;6.56;46.55;92730.78;4973668;28;20100;-76
2021/05/20 04:04:28;;;;;;;0.43;0.43;;;;;;;6.56;46.42;92730.78;4973896;28;20070;-76
2021/05/20 04:06:53;;;;;;;0.30;0.30;;;;;;;6.57;46.75;92733.13;4989367;28;20078;-76
2021/05/20 04:09:19;;;;;;;0.30;0.30;;;;;;;6.58;45.18;92726.91;4988747;28;20137;-77
2021/05/20 04:11:44;;;;;;;0.85;0.40;;;;;;;6.66;44.53;92730.81;4989813;28;20529;-77
2021/05/20 04:14:11;;;;;;;0.40;0.40;;;;;;;6.72;43.94;92732.41;4989988;28;20050;-77
2021/05/20 04:16:37;;;;;;;0.32;0.32;;;;;;;6.85;41.89;92724.09;4959067;28;20054;-77
2021/05/20 04:19:04;;;;;;;0.30;0.30;;;;;;;7.03;41.51;92732.47;4956728;28;20051;-77
2021/05/20 04:21:33;;;;;;;0.40;0.40;;;;;;;7.15;40.95;92730.41;4957132;28;20030;-76
2021/05/20 04:23:59;;;;;;;0.40;0.40;;;;;;;7.32;39.54;92734.59;4957181;28;20102;-77
2021/05/20 04:26:25;;;;;;;0.45;0.45;;;;;;;7.42;39.13;92729.41;4956755;28;20057;-77
2021/05/20 04:28:51;;;;;;;0.63;0.40;;;;;;;7.58;38.38;92728.34;4974469;28;20125;-77
2021/05/20 04:31:18;;;;;;;0.68;0.40;;;;;;;7.72;37.28;92729.41;4974846;28;20055;-76
2021/05/20 04:33:44;;;;;;;0.30;0.30;;;;;;;7.86;36.92;92727.03;4966505;28;20053;-77
2021/05/20 04:36:10;;;;;;;0.32;0.32;;;;;;;8.02;37.11;92735.59;4980170;28;20378;-76
2021/05/20 04:38:36;;;;;;;0.30;0.30;;;;;;;8.14;36.63;92741.31;4961336;28;20038;-76
2021/05/20 04:41:02;;;;;;;0.40;0.40;;;;;;;8.20;36.22;92739.47;4956098;28;20054;-76
2021/05/20 04:43:27;;;;;;;0.40;0.40;;;;;;;8.25;36.31;92746.50;4973627;28;20042;-76
2021/05/20 04:45:53;;;;;;;0.68;0.43;;;;;;;8.37;36.23;92748.81;4966676;28;20372;-75
2021/05/20 04:48:19;;;;;;;0.70;0.35;;;;;;;8.45;35.92;92741.25;4936852;29;20066;-76
2021/05/20 04:50:44;;;;;;;0.73;0.50;;;;;;;8.55;35.30;92743.81;4955080;29;20055;-76
2021/05/20 04:53:10;;;;;;;1.00;0.40;;;;;;;8.62;35.33;92750.59;4920323;29;20073;-76
2021/05/20 04:55:36;;;;;;;0.63;0.50;;;;;;;8.80;36.22;92752.59;4953466;28;20078;-76
2021/05/20 04:58:02;;;;;;;1.95;0.50;;;;;;;9.02;35.99;92751.47;4920906;29;20051;-76
2021/05/20 05:00:30;;;;;;;1.85;0.65;;;;;;;9.11;37.04;92755.06;4952515;28;20086;-77
2021/05/20 05:02:55;;;;;;;2.10;0.52;;;;;;;9.08;38.50;92755.63;4954397;29;20099;-78
2021/05/20 05:05:21;;;;;;;0.73;0.50;;;;;;;9.06;37.37;92750.66;4970878;28;20470;-79
2021/05/20 05:07:47;;;;;;;0.40;0.40;;;;;;;9.08;36.75;92743.34;4955981;29;20062;-78
2021/05/20 05:10:13;;;;;;;0.47;0.47;;;;;;;9.19;35.83;92744.06;4955471;29;20355;-79
2021/05/20 05:12:38;;;;;;;0.95;0.40;;;;;;;9.25;36.04;92753.41;4955560;29;20718;-79
2021/05/20 05:15:06;;;;;;;1.27;0.38;;;;;;;9.32;35.85;92748.69;4954600;28;20501;-79
2021/05/20 05:17:31;;;;;;;0.40;0.40;;;;;;;9.35;36.34;92761.19;4954973;29;20434;-79
2021/05/20 05:19:57;;;;;;;0.30;0.30;;;;;;;9.53;35.70;92759.75;4955236;28;20050;-79
2021/05/20 05:22:23;;;;;;;0.65;0.50;;;;;;;9.69;35.19;92757.81;4933091;29;20082;-81
2021/05/20 05:24:49;;;;;;;0.70;0.43;;;;;;;9.73;35.77;92753.59;4953493;29;20082;-79
2021/05/20 05:27:15;;;;;;;0.63;0.40;;;;;;;9.95;35.91;92763.63;4954007;29;20043;-80
2021/05/20 05:29:43;;;;;;;1.55;0.50;;;;;;;10.11;36.74;92763.47;4955083;29;20043;-80
2021/05/20 05:32:08;;;;;;;0.75;0.50;;;;;;;10.16;37.05;92766.84;4954262;28;20357;-77
2021/05/20 05:34:34;;;;;;;1.65;0.50;;;;;;;10.20;37.66;92773.09;4969546;28;20046;-79
2021/05/20 05:37:01;;;;;;;0.30;0.30;;;;;;;10.26;35.02;92773.78;4978720;28;20043;-79
2021/05/20 05:39:27;;;;;;;0.30;0.30;;;;;;;10.33;35.33;92778.75;4970124;28;20116;-78
2021/05/20 05:41:53;;;;;;;0.47;0.47;;;;;;;10.40;34.14;92776.56;4941150;29;20043;-79
2021/05/20 05:44:18;;;;;;;0.65;0.38;;;;;;;10.47;34.66;92782.28;4933751;29;20554;-78
2021/05/20 05:46:44;;;;;;;2.75;0.40;;;;;;;10.58;35.37;92783.72;4945479;28;20107;-79
2021/05/20 05:49:12;;;;;;;1.63;0.40;;;;;;;10.83;34.41;92787.13;4955108;28;20094;-79
2021/05/20 05:51:41;;;;;;;1.35;0.60;;;;;;;11.63;32.92;92791.56;4955430;28;20402;-79
2021/05/20 05:54:08;;;;;;;0.80;0.65;;;;;;;14.68;28.30;92781.56;4955007;29;20514;-76
2021/05/20 05:56:34;;;;;;;0.60;0.60;;;;;;;17.58;23.44;92779.84;4969797;28;20104;-78
2021/05/20 05:59:00;;;;;;;0.88;0.70;;;;;;;19.71;20.74;92786.53;4955526;29;20510;-79
2021/05/20 06:01:25;;;;;;;1.42;0.80;;;;;;;20.93;19.42;92783.69;4955743;29;20110;-81
2021/05/20 06:03:51;;;;;;;2.70;1.13;;;;;;;22.09;17.68;92785.94;4955405;29;20382;-79
2021/05/20 06:06:17;;;;;;;1.15;0.60;;;;;;;22.65;17.85;92787.38;4955541;29;20372;-80
2021/05/20 06:08:42;;;;;;;0.50;0.50;;;;;;;23.55;17.18;92784.25;4955646;29;20047;-80
2021/05/20 06:11:08;;;;;;;2.75;1.30;;;;;;;24.08;16.02;92784.25;4970644;28;20526;-80
2021/05/20 06:13:34;;;;;;;0.70;0.70;;;;;;;24.21;15.57;92782.13;4938221;29;20058;-80
2021/05/20 06:15:59;;;;;;;1.33;0.73;;;;;;;25.09;15.63;92788.00;4969928;28;20059;-81
2021/05/20 06:18:25;;;;;;;0.70;0.70;;;;;;;25.79;14.12;92798.88;4955864;29;20058;-80
2021/05/20 06:20:50;;;;;;;1.20;0.70;;;;;;;26.01;14.56;92799.78;4937779;29;20054;-80
2021/05/20 06:23:16;;;;;;;3.40;1.38;;;;;;;26.37;14.00;92795.38;4938255;29;20125;-81
2021/05/20 06:25:45;;;;;;;1.23;0.80;;;;;;;26.39;13.87;92793.09;4956594;28;20402;-80
2021/05/20 06:28:11;;;;;;;3.15;1.10;;;;;;;26.60;13.54;92797.00;4941122;29;20502;-80
2021/05/20 06:30:37;;;;;;;1.80;1.00;;;;;;;26.97;13.81;92799.38;4958944;28;20035;-81
2021/05/20 06:33:03;;;;;;;2.17;1.10;;;;;;;27.47;12.98;92794.09;4936384;29;20054;-80
2021/05/20 06:35:29;;;;;;;1.35;0.90;;;;;;;27.62;13.34;92792.91;4972990;28;20047;-78
2021/05/20 06:37:54;;;;;;;0.40;0.40;;;;;;;27.70;11.52;92795.59;4958813;28;20128;-79
2021/05/20 06:40:20;;;;;;;0.73;0.45;;;;;;;27.19;12.92;92798.25;4940787;28;20072;-80
2021/05/20 06:42:46;;;;;;;1.17;0.30;;;;;;;27.59;13.03;92801.75;4957949;28;20071;-77
2021/05/20 06:45:12;;;;;;;3.40;0.93;;;;;;;26.34;14.43;92798.78;4957117;28;20037;-75
2021/05/20 06:47:38;;;;;;;2.33;0.40;;;;;;;23.97;15.45;92798.63;4957251;28;20066;-78
2021/05/20 06:50:05;;;;;;;0.73;0.45;;;;;;;22.17;17.72;92795.59;4981565;28;20151;-77
2021/05/20 06:52:31;;;;;;;0.63;0.47;;;;;;;21.32;17.97;92800.63;4978255;28;20142;-78
2021/05/20 06:54:56;;;;;;;0.70;0.30;;;;;;;20.50;18.94;92796.66;4943902;28;20580;-78
2021/05/20 06:57:26;;;;;;;0.43;0.30;;;;;;;19.87;19.15;92802.53;4990131;28;20046;-78
2021/05/20 07:00:00;;;;;;;1.02;0.40;;;;;;;19.64;19.89;92796.16;5003921;28;20043;-79
2021/05/20 07:02:31;;;;;;;0.10;0.10;;;;;;;19.32;20.66;92798.63;4994696;28;20058;-80
2021/05/20 07:04:57;;;;;;;1.73;0.32;;;;;;;18.89;21.80;92792.75;4978853;28;20085;-78
2021/05/20 07:07:23;;;;;;;0.55;0.30;;;;;;;18.93;21.59;92788.31;4986859;28;20502;-77
2021/05/20 07:09:49;;;;;;;0.10;0.10;;;;;;;18.63;21.93;92792.22;4975268;28;20551;-77
2021/05/20 07:12:16;;;;;;;0.20;0.20;;;;;;;18.49;19.93;92800.47;4975211;28;20066;-77
2021/05/20 07:14:45;;;;;;;0.50;0.35;;;;;;;18.70;21.02;92797.75;4979175;28;20057;-75
2021/05/20 07:17:11;;;;;;;0.55;0.30;;;;;;;18.67;21.75;92806.38;4976177;28;20051;-79
2021/05/20 07:19:37;;;;;;;0.20;0.20;;;;;;;18.46;22.03;92799.25;4993694;28;20051;-78
2021/05/20 07:22:04;;;;;;;0.17;0.17;;;;;;;18.49;21.92;92811.06;4978594;28;20054;-78
2021/05/20 07:24:30;;;;;;;1.20;0.30;;;;;;;18.58;21.36;92805.69;4977181;28;20046;-78
2021/05/20 07:26:56;;;;;;;0.10;0.10;;;;;;;18.81;22.14;92806.09;4977790;28;20034;-78
2021/05/20 07:29:22;;;;;;;1.13;0.50;;;;;;;17.21;23.01;92805.28;4977112;28;20039;-77
2021/05/20 07:31:48;;;;;;;2.05;0.20;;;;;;;16.84;24.45;92802.31;4958928;28;20047;-77
2021/05/20 07:34:14;;;;;;;1.65;1.00;;;;;;;16.73;24.83;92812.44;4976679;28;20461;-74
2021/05/20 07:36:40;;;;;;;0.40;0.28;;;;;;;15.77;24.75;92814.44;4958646;28;20561;-77
2021/05/20 07:39:07;;;;;;;0.30;0.20;;;;;;;16.33;23.05;92814.56;4991023;28;20046;-78
2021/05/20 07:41:33;;;;;;;0.30;0.30;;;;;;;16.39;22.84;92814.09;4976663;28;20039;-76
2021/05/20 07:44:00;;;;;;;0.35;0.30;;;;;;;15.80;24.98;92813.78;4976585;28;20704;-78
2021/05/20 07:46:26;;;;;;;0.30;0.30;;;;;;;16.22;26.00;92814.09;4956921;28;20047;-79
2021/05/20 07:48:52;;;;;;;0.30;0.30;;;;;;;16.07;25.92;92806.66;4977144;28;20039;-77
2021/05/20 07:51:18;;;;;;;0.65;0.32;;;;;;;16.54;24.98;92815.44;4958663;28;20039;-77
2021/05/20 07:53:44;;;;;;;1.33;0.35;;;;;;;16.62;26.48;92819.94;4950271;28;20512;-78
2021/05/20 07:56:09;;;;;;;0.65;0.40;;;;;;;16.79;24.53;92815.69;4991195;28;20039;-77
2021/05/20 07:58:35;;;;;;;0.80;0.30;;;;;;;16.69;24.68;92811.53;4958237;28;20090;-78
2021/05/20 08:01:03;;;;;;;1.55;0.52;;;;;;;17.14;26.17;92816.38;4976869;28;20050;-78
2021/05/20 08:03:53;;;;;;;0.52;0.20;;;;;;;16.85;24.47;92815.22;4975637;28;20048;-76
2021/05/20 08:06:28;;;;;;;0.95;0.40;;;;;;;17.25;23.80;92828.13;4975637;28;20141;-75
2021/05/20 08:09:12;;;;;;;0.47;0.30;;;;;;;16.15;25.02;92829.66;4944917;28;20051;-78
2021/05/20 08:11:38;;;;;;;0.35;0.35;;;;;;;16.09;25.65;92812.41;4976290;28;20046;-77
2021/05/20 08:14:04;;;;;;;0.30;0.30;;;;;;;16.12;25.45;92811.78;4975662;28;20050;-74
2021/05/20 08:16:30;;;;;;;0.43;0.40;;;;;;;16.31;25.51;92819.38;4940341;28;20051;-78
2021/05/20 08:18:55;;;;;;;0.30;0.30;;;;;;;16.28;25.55;92820.78;4958052;28;20069;-77
2021/05/20 08:21:21;;;;;;;0.63;0.35;;;;;;;16.42;25.25;92828.53;4975558;28;20046;-78
2021/05/20 08:23:46;;;;;;;1.35;0.40;;;;;;;16.27;23.68;92836.94;4975707;28;20513;-78
2021/05/20 08:26:13;;;;;;;0.30;0.30;;;;;;;15.86;22.86;92848.75;4957694;28;20031;-77
2021/05/20 08:28:40;;;;;;;0.30;0.30;;;;;;;15.55;25.44;92831.13;4981453;28;20494;-77
2021/05/20 08:31:05;;;;;;;2.63;0.43;;;;;;;15.72;25.22;92833.06;4956652;28;20110;-78
2021/05/20 08:33:31;;;;;;;0.65;0.40;;;;;;;15.80;24.54;92840.97;4955687;29;20047;-77
2021/05/20 08:35:57;;;;;;;0.20;0.20;;;;;;;16.02;25.36;92832.13;4954236;29;20031;-77
2021/05/20 08:38:22;;;;;;;0.20;0.20;;;;;;;16.08;24.56;92845.97;4955681;29;20055;-78
2021/05/20 08:40:48;;;;;;;0.30;0.30;;;;;;;15.72;25.27;92825.16;4970558;28;20486;-77
2021/05/20 08:43:14;;;;;;;0.45;0.30;;;;;;;15.97;25.14;92824.38;4956244;29;20051;-77
2021/05/20 08:45:40;;;;;;;0.32;0.30;;;;;;;15.52;24.76;92823.84;4952065;28;20055;-77
2021/05/20 08:48:07;;;;;;;0.25;0.20;;;;;;;15.48;26.30;92833.44;4969852;28;20493;-77
2021/05/20 08:50:33;;;;;;;0.38;0.30;;;;;;;15.83;25.76;92839.59;4938413;29;20083;-78
2021/05/20 08:53:00;;;;;;;0.32;0.30;;;;;;;15.99;27.11;92822.19;4934537;29;20054;-76
2021/05/20 08:55:29;;;;;;;0.47;0.32;;;;;;;16.23;24.85;92816.44;4943867;28;20074;-77
2021/05/20 08:57:56;;;;;;;0.32;0.30;;;;;;;16.14;25.60;92828.09;4938334;29;20058;-77
2021/05/20 09:00:24;;;;;;;0.30;0.30;;;;;;;15.95;24.51;92826.53;4921662;29;20098;-76
2021/05/20 09:02:50;;;;;;;1.95;0.40;;;;;;;15.62;26.19;92840.13;4954738;29;20122;-77
2021/05/20 09:05:21;;;;;;;1.42;0.25;;;;;;;15.33;25.34;92810.91;4955516;29;20046;-77
2021/05/20 09:08:00;;;;;;;0.30;0.30;;;;;;;15.97;27.44;92821.72;4954522;28;20039;-78
2021/05/20 09:10:30;;;;;;;0.30;0.30;;;;;;;16.06;25.32;92815.69;4954324;28;20051;-77
2021/05/20 09:13:08;;;;;;;4.28;0.43;;;;;;;16.44;25.89;92810.50;4955274;29;20126;-77
2021/05/20 09:15:34;;;;;;;1.30;0.40;;;;;;;16.67;24.99;92819.00;4954391;29;20406;-77
2021/05/20 09:18:11;;;;;;;0.75;0.40;;;;;;;17.00;23.65;92815.78;4937697;29;20087;-78
2021/05/20 09:20:40;;;;;;;1.17;0.28;;;;;;;16.98;24.16;92818.78;4954191;29;20054;-77
2021/05/20 09:23:32;;;;;;;0.20;0.20;;;;;;;16.45;25.12;92818.09;4936995;29;20227;-77
2021/05/20 09:26:09;;;;;;;0.20;0.20;;;;;;;16.27;25.21;92829.78;4954838;29;20043;-77
2021/05/20 09:28:42;;;;;;;0.75;0.35;;;;;;;16.43;24.94;92830.06;4969221;28;20054;-77
2021/05/20 09:31:08;;;;;;;;;;;;;;;16.79;23.23;92820.97;4954866;28;20123;-77
2021/05/20 09:33:34;;;;;;;8.52;0.52;;;;;;;16.87;24.59;92822.09;4937212;29;19941;-77
2021/05/20 09:36:00;;;;;;;0.15;0.15;;;;;;;16.94;26.55;92819.72;4954930;29;20047;-78
2021/05/20 09:38:27;;;;;;;0.28;0.20;;;;;;;16.70;23.68;92821.00;4936727;29;20138;-78
2021/05/20 09:40:57;;;;;;;0.40;0.35;;;;;;;16.32;24.64;92829.63;4956957;29;20058;-78
2021/05/20 09:43:34;;;;;;;0.20;0.20;;;;;;;16.57;26.59;92835.97;4945795;29;20081;-78
2021/05/20 09:46:10;;;;;;;0.30;0.30;;;;;;;16.63;22.00;92823.34;4934585;28;20137;-77
2021/05/20 09:48:38;;;;;;;0.20;0.20;;;;;;;16.29;24.68;92832.88;4953078;28;20082;-77
2021/05/20 09:51:20;;;;;;;0.30;0.30;;;;;;;16.55;23.04;92832.88;4937393;29;20042;-78
2021/05/20 09:53:52;;;;;;;2.78;0.45;;;;;;;16.91;25.18;92839.63;4968348;28;20663;-77
2021/05/20 09:56:38;;;;;;;0.30;0.30;;;;;;;16.54;22.51;92827.88;4973612;28;20050;-77
2021/05/20 09:59:04;;;;;;;0.22;0.22;;;;;;;16.63;22.82;92845.25;4975995;28;20049;-77
2021/05/20 10:01:30;;;;;;;0.20;0.20;;;;;;;16.52;23.75;92827.41;4972749;28;20039;-78
2021/05/20 10:03:57;;;;;;;0.20;0.20;;;;;;;16.77;24.19;92828.44;4972640;28;20135;-78
2021/05/20 10:06:39;;;;;;;0.32;0.30;;;;;;;16.77;23.18;92815.22;4972760;28;20042;-76
2021/05/20 10:09:07;;;;;;;1.00;0.20;;;;;;;16.56;22.59;92829.13;4972748;28;20041;-78
2021/05/20 10:11:34;;;;;;;0.75;0.28;;;;;;;16.72;23.36;92837.31;4961254;28;20038;-77
2021/05/20 10:14:03;;;;;;;1.45;0.25;;;;;;;16.46;22.52;92834.75;4971571;28;20117;-76
2021/05/20 10:16:29;;;;;;;0.28;0.28;;;;;;;16.97;23.01;92822.50;5003612;28;20513;-79
2021/05/20 10:18:56;;;;;;;0.17;0.17;;;;;;;17.34;24.64;92814.06;4978393;28;20397;-77
2021/05/20 10:21:28;;;;;;;0.20;0.20;;;;;;;17.35;21.91;92819.06;4957814;28;20526;-76
2021/05/20 10:23:54;;;;;;;0.90;0.30;;;;;;;17.86;23.64;92824.38;4976971;28;20043;-77
2021/05/20 10:26:21;;;;;;;0.65;0.30;;;;;;;17.68;22.61;92808.59;4975857;28;20038;-82
2021/05/20 10:28:47;;;;;;;0.25;0.25;;;;;;;17.91;24.20;92816.25;4972544;28;20038;-77
2021/05/20 10:31:16;;;;;;;0.30;0.30;;;;;;;17.74;20.73;92824.28;4971870;28;20039;-79
2021/05/20 10:33:45;;;;;;;0.52;0.32;;;;;;;17.33;23.09;92815.94;4974499;28;20042;-75
2021/05/20 10:36:27;;;;;;;0.55;0.30;;;;;;;17.10;21.92;92826.03;4956958;28;20038;-77
2021/05/20 10:38:53;;;;;;;;;;;;;;;17.38;23.35;92809.69;4984100;28;20454;-75
2021/05/20 10:41:28;;;;;;;0.20;0.20;;;;;;;17.54;22.70;92808.06;4936316;28;20001;-78
2021/05/20 10:44:02;;;;;;;0.65;0.30;;;;;;;17.28;22.77;92806.31;4968444;28;20420;-77
2021/05/20 10:46:28;;;;;;;1.30;0.40;;;;;;;17.43;23.36;92809.53;4961502;28;20075;-79
2021/05/20 10:48:55;;;;;;;0.32;0.32;;;;;;;17.48;24.04;92812.75;4977473;28;20440;-77
2021/05/20 10:51:47;;;;;;;0.20;0.20;;;;;;;17.24;21.59;92808.06;4961996;28;20042;-78
2021/05/20 10:54:15;;;;;;;0.98;0.30;;;;;;;17.17;23.32;92810.44;4970946;28;20053;-78
2021/05/20 10:56:48;;;;;;;0.20;0.20;;;;;;;17.61;24.01;92813.63;4976526;28;20038;-77
2021/05/20 10:59:36;;;;;;;0.30;0.30;;;;;;;17.84;22.04;92813.34;4979569;28;20043;-77
2021/05/20 11:02:02;;;;;;;0.30;0.30;;;;;;;18.23;24.09;92806.78;4978621;28;20117;-77
2021/05/20 11:04:38;;;;;;;0.43;0.30;;;;;;;18.23;23.01;92806.78;4979468;28;20122;-78
2021/05/20 11:07:04;;;;;;;0.73;0.32;;;;;;;18.16;23.45;92784.56;4975361;28;20078;-79
2021/05/20 11:09:50;;;;;;;0.63;0.30;;;;;;;18.81;23.82;92798.91;4977273;28;20038;-80
2021/05/20 11:12:17;;;;;;;0.20;0.20;;;;;;;18.82;21.14;92800.44;4981751;28;20056;-78
2021/05/20 11:14:44;;;;;;;0.20;0.20;;;;;;;18.29;21.70;92800.19;4997239;28;20038;-80
2021/05/20 11:17:29;;;;;;;0.22;0.20;;;;;;;18.73;25.55;92792.59;4983527;28;20047;-79
2021/05/20 11:20:27;;;;;;;0.20;0.20;;;;;;;18.82;22.05;92803.09;4998159;28;20159;-79
2021/05/20 11:23:26;;;;;;;0.45;0.30;;;;;;;19.22;23.72;92791.84;4983168;28;20062;-80
2021/05/20 11:26:02;;;;;;;0.70;0.20;;;;;;;19.47;22.62;92791.84;4950768;28;20379;-80
2021/05/20 11:28:28;;;;;;;0.30;0.30;;;;;;;19.47;22.75;92802.47;4983624;28;20078;-79
2021/05/20 11:30:58;;;;;;;0.43;0.20;;;;;;;18.99;20.83;92782.81;4983100;28;20035;-80
2021/05/20 11:33:25;;;;;;;0.45;0.20;;;;;;;19.41;21.42;92787.88;4971183;28;20043;-80
2021/05/20 11:38:27;;;;;;;0.10;0.10;;;;;;;19.80;21.20;92798.91;4983927;28;20090;-79
2021/05/20 11:40:54;;;;;;;0.20;0.20;;;;;;;19.82;20.94;92783.41;4982666;28;20046;-78
2021/05/20 11:43:29;;;;;;;0.20;0.20;;;;;;;20.23;21.91;92782.28;4982532;28;20444;-78
2021/05/20 11:45:56;;;;;;;0.30;0.20;;;;;;;19.69;18.79;92785.31;4981270;28;20089;-80